Time;durP1;ratioP1;P1;durP2;ratioP2;P2;SDS_P1;SDS_P2;PMS_P1;PMS_P2;Temp;Humidity;BMP_temperature;BMP_pressure;BME280_temperature;BME280_humidity;BME280_pressure;Samples;Min_cycle;Max_cycle;Signal;HPM_P1;HPM_P2
2023/08/23 00:00:29;;;;;;;9.57;7.75;;;;;;;29.55;47.08;99725.22;4290411;33;34645;-71
2023/08/23 00:02:57;;;;;;;10.73;8.02;;;;;;;29.53;47.11;99728.22;4290207;33;34824;-68
2023/08/23 00:05:25;;;;;;;11.02;8.43;;;;;;;29.53;47.16;99724.63;4302202;33;34000;-68
2023/08/23 00:07:53;;;;;;;11.00;8.35;;;;;;;29.51;47.02;99718.56;4302296;33;33536;-67
2023/08/23 00:10:20;;;;;;;11.07;8.40;;;;;;;29.50;46.90;99715.00;4303317;33;33560;-68
2023/08/23 00:12:53;;;;;;;11.27;8.85;;;;;;;29.50;46.94;99704.00;4314815;33;33977;-70
2023/08/23 00:15:20;;;;;;;9.82;8.25;;;;;;;29.50;46.98;99709.50;4293401;33;34736;-69
2023/08/23 00:17:48;;;;;;;11.27;8.60;;;;;;;29.49;46.97;99710.59;4292643;33;33490;-65
2023/08/23 00:20:16;;;;;;;9.88;8.35;;;;;;;29.47;47.00;99708.12;4318227;33;34282;-66
2023/08/23 00:22:44;;;;;;;11.52;8.60;;;;;;;29.46;47.03;99703.69;4292750;33;33360;-70
2023/08/23 00:25:11;;;;;;;10.70;8.90;;;;;;;29.46;46.96;99700.12;4292437;33;34263;-69
2023/08/23 00:27:39;;;;;;;9.55;8.30;;;;;;;29.45;46.90;99701.22;4304615;33;34482;-66
2023/08/23 00:30:07;;;;;;;10.13;9.13;;;;;;;29.45;46.80;99698.47;4304581;33;34582;-66
2023/08/23 00:32:34;;;;;;;11.02;7.93;;;;;;;29.44;46.72;99702.34;4304700;33;34392;-69
2023/08/23 00:35:04;;;;;;;10.18;8.27;;;;;;;29.43;46.81;99701.50;4318081;33;33829;-69
2023/08/23 00:37:32;;;;;;;9.63;8.27;;;;;;;29.43;46.85;99700.69;4317795;33;34122;-70
2023/08/23 00:39:59;;;;;;;12.93;8.65;;;;;;;29.41;46.89;99692.69;4292471;33;33237;-67
2023/08/23 00:42:29;;;;;;;10.43;8.52;;;;;;;29.40;46.90;99696.53;4317147;33;34039;-68
2023/08/23 00:44:57;;;;;;;10.77;8.93;;;;;;;29.41;46.93;99689.13;4317558;33;33952;-69
2023/08/23 00:47:24;;;;;;;9.45;8.18;;;;;;;29.39;47.02;99691.31;4291049;33;32868;-71
2023/08/23 00:49:52;;;;;;;13.10;9.00;;;;;;;29.38;47.03;99689.69;4317511;33;34661;-71
2023/08/23 00:52:20;;;;;;;11.95;7.93;;;;;;;29.37;47.24;99688.00;4290432;33;34879;-68
2023/08/23 00:54:47;;;;;;;9.52;7.80;;;;;;;29.38;47.22;99692.44;4280274;33;33893;-69
2023/08/23 00:57:15;;;;;;;12.05;7.70;;;;;;;29.36;47.25;99691.84;4292271;33;32761;-68
2023/08/23 00:59:44;;;;;;;9.18;7.57;;;;;;;29.35;47.29;99692.94;4292674;33;33686;-67
2023/08/23 01:02:11;;;;;;;11.02;7.95;;;;;;;29.35;47.22;99687.44;4292640;33;34674;-69
2023/08/23 01:04:39;;;;;;;11.88;8.10;;;;;;;29.34;47.30;99686.63;4317873;33;34910;-67
2023/08/23 01:07:14;;;;;;;9.68;8.70;;;;;;;29.32;47.28;99677.00;4317441;33;33658;-70
2023/08/23 01:10:02;;;;;;;12.20;8.73;;;;;;;29.34;47.22;99683.06;4304267;33;33832;-71
2023/08/23 01:12:47;;;;;;;10.55;8.63;;;;;;;29.34;47.13;99677.56;4292111;33;33149;-70
2023/08/23 01:15:15;;;;;;;9.25;8.25;;;;;;;29.31;47.14;99681.66;4304186;33;33066;-68
2023/08/23 01:17:43;;;;;;;11.02;8.02;;;;;;;29.29;47.28;99683.88;4292382;33;34340;-68
2023/08/23 01:20:11;;;;;;;11.98;8.50;;;;;;;29.28;47.30;99675.88;4292430;33;33818;-70
2023/08/23 01:22:44;;;;;;;11.30;9.40;;;;;;;29.28;47.28;99684.12;4304360;33;34021;-70
2023/08/23 01:25:13;;;;;;;12.60;8.73;;;;;;;29.25;47.32;99682.75;4304221;33;34687;-66
2023/08/23 01:27:41;;;;;;;9.00;8.10;;;;;;;29.25;47.25;99690.16;4317502;33;33560;-70
2023/08/23 01:30:23;;;;;;;11.50;9.10;;;;;;;29.25;47.21;99688.25;4305741;33;33791;-70
2023/08/23 01:33:14;;;;;;;10.88;8.27;;;;;;;29.25;47.21;99688.25;4304201;33;34761;-69
2023/08/23 01:35:51;;;;;;;11.55;8.73;;;;;;;29.26;47.14;99689.88;4292863;33;34233;-70
2023/08/23 01:38:19;;;;;;;11.12;8.75;;;;;;;29.23;47.22;99679.41;4292967;33;34185;-70
2023/08/23 01:40:47;;;;;;;10.05;8.32;;;;;;;29.22;47.17;99680.53;4303919;33;33928;-69
2023/08/23 01:43:15;;;;;;;9.55;8.52;;;;;;;29.21;47.19;99676.13;4280359;33;33905;-69
2023/08/23 01:45:42;;;;;;;12.40;8.35;;;;;;;29.20;47.28;99683.56;4304217;33;33984;-67
2023/08/23 01:48:10;;;;;;;11.43;8.27;;;;;;;29.19;47.37;99679.16;4292192;33;34506;-69
2023/08/23 01:50:37;;;;;;;10.50;8.13;;;;;;;29.18;47.39;99682.97;4304244;33;34361;-66
2023/08/23 01:53:05;;;;;;;10.85;8.50;;;;;;;29.17;47.37;99681.31;4302989;33;34069;-70
2023/08/23 01:55:33;;;;;;;10.20;8.25;;;;;;;29.17;47.29;99675.00;4303979;33;35380;-69
2023/08/23 01:58:00;;;;;;;10.25;8.57;;;;;;;29.16;47.30;99679.69;4304074;33;33837;-70
2023/08/23 02:00:28;;;;;;;9.75;8.40;;;;;;;29.15;47.30;99672.53;4291900;33;33952;-69
2023/08/23 02:02:58;;;;;;;10.50;8.50;;;;;;;29.16;47.24;99667.88;4304289;33;34015;-67
2023/08/23 02:05:26;;;;;;;11.40;8.50;;;;;;;29.15;47.21;99672.53;4292082;33;34218;-70
2023/08/23 02:07:53;;;;;;;9.95;8.60;;;;;;;29.14;47.13;99673.59;4317266;33;34417;-69
2023/08/23 02:10:21;;;;;;;11.95;8.35;;;;;;;29.14;47.16;99672.78;4317169;33;34749;-70
2023/08/23 02:12:48;;;;;;;9.75;8.38;;;;;;;29.13;47.14;99666.47;4303853;33;33915;-70
2023/08/23 02:15:16;;;;;;;9.98;8.32;;;;;;;29.13;47.15;99662.91;4304197;33;34151;-66
2023/08/23 02:17:44;;;;;;;9.05;7.57;;;;;;;29.12;47.05;99653.84;4317052;33;34504;-69
2023/08/23 02:20:12;;;;;;;9.57;8.07;;;;;;;29.11;47.02;99648.63;4292002;33;32986;-70
2023/08/23 02:22:39;;;;;;;10.45;7.95;;;;;;;29.10;46.98;99653.28;4303938;33;34876;-67
2023/08/23 02:25:07;;;;;;;10.13;8.00;;;;;;;29.10;46.97;99650.53;4303688;33;33924;-69
2023/08/23 02:27:36;;;;;;;8.95;7.62;;;;;;;29.09;47.02;99646.12;4317037;33;33550;-66
2023/08/23 02:30:05;;;;;;;10.20;8.60;;;;;;;29.09;47.02;99642.53;4303927;33;34513;-70
2023/08/23 02:32:33;;;;;;;9.75;8.00;;;;;;;29.09;47.02;99643.37;4316971;33;33887;-66
2023/08/23 02:35:02;;;;;;;11.55;8.60;;;;;;;29.08;47.10;99652.72;4303625;33;34052;-70
2023/08/23 02:37:29;;;;;;;10.13;8.57;;;;;;;29.07;47.05;99640.06;4291742;33;34128;-71
2023/08/23 02:39:57;;;;;;;11.00;8.77;;;;;;;29.07;47.11;99640.06;4291680;33;33262;-70
2023/08/23 02:42:25;;;;;;;10.95;8.75;;;;;;;29.06;47.10;99645.84;4303784;33;33999;-69
2023/08/23 02:44:53;;;;;;;9.32;8.43;;;;;;;29.06;47.05;99646.66;4291715;33;33763;-70
2023/08/23 02:47:21;;;;;;;8.55;7.62;;;;;;;29.05;47.18;99642.28;4316996;33;33505;-71
2023/08/23 02:49:48;;;;;;;10.57;8.95;;;;;;;29.05;47.20;99646.91;4303677;33;33348;-69
2023/08/23 02:52:16;;;;;;;11.00;7.78;;;;;;;29.05;47.18;99644.16;4303433;33;33871;-66
2023/08/23 02:54:43;;;;;;;10.88;8.00;;;;;;;29.05;47.08;99644.16;4303574;33;34098;-66
2023/08/23 02:57:11;;;;;;;9.43;8.18;;;;;;;29.04;47.08;99646.09;4303162;33;33777;-67
2023/08/23 02:59:38;;;;;;;11.10;7.72;;;;;;;29.03;46.98;99649.94;4303173;33;32767;-69
2023/08/23 03:02:06;;;;;;;9.02;7.97;;;;;;;29.03;47.00;99651.88;4291297;33;33306;-67
2023/08/23 03:04:34;;;;;;;11.93;8.27;;;;;;;29.03;47.04;99649.13;4292380;33;34915;-66
2023/08/23 03:07:02;;;;;;;9.52;8.52;;;;;;;29.02;47.02;99647.47;4281158;33;33400;-70
2023/08/23 03:09:29;;;;;;;11.45;9.20;;;;;;;29.00;47.02;99650.47;4305149;33;32822;-67
2023/08/23 03:11:57;;;;;;;10.40;7.75;;;;;;;28.99;47.03;99643.31;4318386;33;33915;-69
2023/08/23 03:14:25;;;;;;;12.30;7.90;;;;;;;28.98;47.12;99639.75;4304979;33;33908;-69
2023/08/23 03:16:53;;;;;;;11.38;8.63;;;;;;;28.97;47.09;99643.59;4305268;33;32608;-70
2023/08/23 03:19:20;;;;;;;9.50;8.15;;;;;;;28.97;47.10;99645.53;4305358;33;33832;-66
2023/08/23 03:21:48;;;;;;;9.95;7.85;;;;;;;28.96;47.07;99652.13;4305019;33;34805;-68
2023/08/23 03:24:16;;;;;;;10.98;8.68;;;;;;;28.97;47.08;99653.78;4318342;33;34078;-69
2023/08/23 03:26:44;;;;;;;10.20;9.00;;;;;;;28.96;47.12;99649.38;4318209;33;33294;-66
2023/08/23 03:29:11;;;;;;;9.85;8.85;;;;;;;28.95;47.17;99651.28;4318127;33;33432;-66
2023/08/23 03:31:39;;;;;;;13.15;9.13;;;;;;;28.95;47.19;99647.69;4304962;33;33200;-69
2023/08/23 03:34:08;;;;;;;9.02;7.97;;;;;;;28.94;47.18;99643.28;4305360;33;33883;-67
2023/08/23 03:36:35;;;;;;;9.77;8.60;;;;;;;28.94;47.13;99637.78;4304752;33;33754;-66
2023/08/23 03:39:03;;;;;;;9.23;8.23;;;;;;;28.93;47.13;99636.13;4304984;33;33943;-68
2023/08/23 03:41:30;;;;;;;10.27;9.18;;;;;;;28.93;47.28;99642.44;4318404;33;33921;-70
2023/08/23 03:43:58;;;;;;;10.88;8.82;;;;;;;28.93;47.28;99638.88;4317912;33;34172;-66
2023/08/23 03:46:26;;;;;;;9.88;8.35;;;;;;;28.92;47.21;99635.31;4305297;33;33611;-68
2023/08/23 03:48:54;;;;;;;11.18;8.18;;;;;;;28.92;47.14;99638.06;4318169;33;33977;-69
2023/08/23 03:51:22;;;;;;;11.65;9.40;;;;;;;28.91;47.17;99641.91;4292604;33;33045;-70
2023/08/23 03:53:50;;;;;;;10.85;8.68;;;;;;;28.92;47.20;99642.72;4302750;33;34768;-71
2023/08/23 03:56:18;;;;;;;10.02;8.35;;;;;;;28.92;47.27;99639.97;4286722;33;33791;-71
2023/08/23 03:58:45;;;;;;;14.18;8.95;;;;;;;28.92;47.30;99645.47;4295654;33;34525;-71
2023/08/23 04:01:13;;;;;;;11.68;8.73;;;;;;;28.92;47.27;99648.22;4303999;33;33890;-70
2023/08/23 04:03:41;;;;;;;9.77;8.55;;;;;;;28.91;47.24;99639.16;4304803;33;34175;-70
2023/08/23 04:06:08;;;;;;;12.55;8.82;;;;;;;28.90;47.28;99640.22;4317902;33;33643;-66
2023/08/23 04:08:36;;;;;;;10.20;8.27;;;;;;;28.91;47.26;99638.31;4304709;33;33982;-69
2023/08/23 04:11:04;;;;;;;10.73;8.98;;;;;;;28.90;47.26;99640.22;4292751;33;33192;-68
2023/08/23 04:13:32;;;;;;;17.98;9.50;;;;;;;28.90;47.13;99637.47;4304700;33;34170;-69
2023/08/23 04:16:00;;;;;;;10.88;8.18;;;;;;;28.89;47.18;99644.06;4292196;33;33576;-66
2023/08/23 04:18:27;;;;;;;14.48;9.35;;;;;;;28.90;47.22;99637.47;4317990;33;33438;-70
2023/08/23 04:20:59;;;;;;;13.20;8.18;;;;;;;28.90;47.14;99633.91;4304677;33;33713;-65
2023/08/23 04:23:27;;;;;;;10.63;9.05;;;;;;;28.88;47.17;99625.13;4304766;33;33839;-70
2023/08/23 04:25:56;;;;;;;11.68;9.23;;;;;;;28.89;47.17;99615.78;4292916;33;32495;-67
2023/08/23 04:28:23;;;;;;;10.25;9.15;;;;;;;28.89;47.21;99619.34;4317774;33;33448;-66
2023/08/23 04:30:51;;;;;;;11.68;8.80;;;;;;;28.88;47.29;99617.72;4304445;33;34105;-67
2023/08/23 04:33:18;;;;;;;10.48;8.85;;;;;;;28.88;47.32;99620.47;4317987;33;34006;-65
2023/08/23 04:35:46;;;;;;;12.32;9.02;;;;;;;28.88;47.30;99614.97;4304929;33;33156;-65
2023/08/23 04:38:14;;;;;;;10.75;9.02;;;;;;;28.89;47.39;99615.78;4304846;33;34649;-66
2023/08/23 04:40:42;;;;;;;12.32;9.32;;;;;;;28.89;47.37;99618.53;4304365;33;34694;-65
2023/08/23 04:43:09;;;;;;;11.15;9.23;;;;;;;28.88;47.41;99619.63;4304504;33;34069;-65
2023/08/23 04:45:38;;;;;;;11.55;8.77;;;;;;;28.89;47.44;99621.28;4304832;33;33669;-67
2023/08/23 04:48:06;;;;;;;11.63;9.73;;;;;;;28.88;47.46;99619.63;4292714;33;33683;-65
2023/08/23 04:50:34;;;;;;;12.52;9.10;;;;;;;28.89;47.43;99622.09;4304757;33;34601;-66
2023/08/23 04:53:01;;;;;;;11.40;8.98;;;;;;;28.90;47.54;99626.50;4292606;33;34320;-66
2023/08/23 04:55:29;;;;;;;10.73;9.48;;;;;;;28.89;47.59;99627.59;4317568;33;33557;-66
2023/08/23 04:57:57;;;;;;;13.15;9.80;;;;;;;28.89;47.66;99633.09;4304406;33;34400;-69
2023/08/23 05:00:24;;;;;;;11.40;8.82;;;;;;;28.90;47.74;99633.91;4304533;33;34432;-69
2023/08/23 05:02:52;;;;;;;12.02;9.52;;;;;;;28.89;47.82;99633.09;4292216;33;33215;-66
2023/08/23 05:05:20;;;;;;;12.18;9.35;;;;;;;28.90;47.85;99634.72;4304635;33;33664;-66
2023/08/23 05:07:49;;;;;;;10.57;8.98;;;;;;;28.91;47.86;99624.56;4304389;33;34674;-69
2023/08/23 05:10:17;;;;;;;;;;;;;;;28.92;47.84;99627.06;4293349;33;33914;-70
2023/08/23 05:12:44;;;;;;;11.40;8.88;;;;;;;29.04;47.62;99629.63;4304267;33;33145;-67
2023/08/23 05:15:12;;;;;;;12.30;8.80;;;;;;;28.95;47.75;99622.97;4317609;33;33774;-65
2023/08/23 05:17:40;;;;;;;12.02;8.88;;;;;;;28.93;47.78;99627.91;4304128;33;34751;-68
2023/08/23 05:20:08;;;;;;;11.95;9.25;;;;;;;28.93;47.90;99616.91;4304255;33;32999;-69
2023/08/23 05:22:37;;;;;;;9.57;8.20;;;;;;;28.93;47.85;99623.22;4317626;33;34450;-67
2023/08/23 05:25:04;;;;;;;12.45;8.63;;;;;;;28.93;47.71;99619.66;4292554;33;33170;-69
2023/08/23 05:27:32;;;;;;;11.32;9.27;;;;;;;28.93;47.67;99620.47;4317309;33;34741;-66
2023/08/23 05:30:01;;;;;;;11.45;8.93;;;;;;;28.93;47.63;99620.47;4317476;33;33585;-65
2023/08/23 05:32:29;;;;;;;12.32;8.82;;;;;;;28.94;47.74;99622.13;4292626;33;34175;-68
2023/08/23 05:34:57;;;;;;;12.18;9.35;;;;;;;28.95;47.67;99628.47;4304630;33;34131;-65
2023/08/23 05:37:25;;;;;;;15.35;9.52;;;;;;;28.95;47.65;99625.72;4317756;33;33912;-66
2023/08/23 05:39:53;;;;;;;11.07;9.43;;;;;;;28.96;47.69;99627.41;4292181;33;34186;-66
2023/08/23 05:42:20;;;;;;;17.05;9.13;;;;;;;28.96;47.69;99630.16;4303933;33;32892;-68
2023/08/23 05:44:48;;;;;;;11.45;9.32;;;;;;;28.97;47.76;99634.53;4317476;33;34177;-68
2023/08/23 05:47:16;;;;;;;12.48;9.70;;;;;;;28.97;47.82;99635.37;4292186;33;34207;-65
2023/08/23 05:49:43;;;;;;;10.23;8.80;;;;;;;28.99;47.83;99637.84;4289597;33;34802;-67
2023/08/23 05:52:11;;;;;;;11.95;9.52;;;;;;;29.00;47.83;99635.91;4289716;33;33393;-65
2023/08/23 05:54:39;;;;;;;14.52;9.00;;;;;;;29.01;47.83;99634.84;4301557;33;34275;-66
2023/08/23 05:57:06;;;;;;;11.55;9.18;;;;;;;29.01;47.84;99632.91;4289500;33;33398;-66
2023/08/23 05:59:34;;;;;;;10.30;8.65;;;;;;;29.03;47.94;99635.37;4301484;33;34710;-65
2023/08/23 06:02:02;;;;;;;11.23;9.15;;;;;;;29.03;48.01;99627.16;4302754;33;33656;-68
2023/08/23 06:04:29;;;;;;;11.10;9.10;;;;;;;29.04;48.11;99637.03;4302797;33;34258;-68
2023/08/23 06:06:57;;;;;;;10.73;8.82;;;;;;;29.06;48.10;99630.19;4277809;33;33172;-68
2023/08/23 06:09:25;;;;;;;14.15;8.75;;;;;;;29.06;48.18;99630.19;4301362;33;34537;-66
2023/08/23 06:11:52;;;;;;;9.82;8.45;;;;;;;29.08;48.21;99633.47;4301305;33;34203;-66
2023/08/23 06:14:22;;;;;;;14.95;8.50;;;;;;;29.08;48.33;99632.66;4289360;33;33616;-66
2023/08/23 06:16:49;;;;;;;10.13;8.93;;;;;;;29.09;48.34;99635.13;4291672;33;34004;-66
2023/08/23 06:19:17;;;;;;;10.38;8.93;;;;;;;29.11;48.34;99635.69;4282955;33;34621;-65
2023/08/23 06:21:45;;;;;;;11.30;8.55;;;;;;;29.11;48.37;99632.94;4303754;33;34515;-68
2023/08/23 06:24:12;;;;;;;11.27;9.18;;;;;;;29.13;48.45;99629.94;4301767;33;34201;-68
2023/08/23 06:26:40;;;;;;;12.02;9.48;;;;;;;29.14;48.54;99632.41;4303898;33;33957;-68
2023/08/23 06:29:08;;;;;;;14.52;9.60;;;;;;;29.17;48.72;99636.53;4291781;33;33696;-67
2023/08/23 06:31:35;;;;;;;13.13;9.57;;;;;;;29.17;48.76;99642.84;4316997;33;34214;-67
2023/08/23 06:34:03;;;;;;;12.60;9.55;;;;;;;29.19;48.81;99648.94;4317050;33;33706;-66
2023/08/23 06:36:31;;;;;;;13.98;9.98;;;;;;;29.23;48.84;99646.44;4317070;33;33961;-65
2023/08/23 06:38:58;;;;;;;14.27;11.45;;;;;;;29.24;48.58;99634.38;4316247;33;33888;-65
2023/08/23 06:41:26;;;;;;;14.02;10.40;;;;;;;29.25;48.49;99649.78;4303666;33;33810;-69
2023/08/23 06:44:00;;;;;;;11.77;10.50;;;;;;;29.26;48.32;99642.34;4291452;33;33587;-66
2023/08/23 06:46:29;;;;;;;12.45;9.93;;;;;;;29.27;48.33;99641.25;4291894;33;34716;-65
2023/08/23 06:48:56;;;;;;;11.55;10.43;;;;;;;29.29;48.48;99650.06;4303267;33;34721;-65
2023/08/23 06:51:27;;;;;;;13.20;10.25;;;;;;;29.30;48.38;99646.22;4291187;33;34140;-67
2023/08/23 06:53:55;;;;;;;13.25;10.65;;;;;;;29.33;48.09;99646.50;4301278;33;32690;-66
2023/08/23 06:56:22;;;;;;;13.65;11.38;;;;;;;29.38;47.80;99657.50;4277128;33;33813;-65
2023/08/23 06:58:50;;;;;;;13.48;11.60;;;;;;;29.40;47.92;99659.97;4289016;33;34239;-69
2023/08/23 07:01:18;;;;;;;11.93;10.55;;;;;;;29.41;48.18;99661.62;4301979;33;33944;-66
2023/08/23 07:03:45;;;;;;;16.27;11.07;;;;;;;29.44;48.19;99652.84;4302009;33;33585;-67
2023/08/23 07:06:14;;;;;;;15.82;10.52;;;;;;;29.44;48.22;99666.59;4288804;33;34266;-65
2023/08/23 07:08:42;;;;;;;12.20;10.90;;;;;;;29.46;48.23;99653.41;4288923;33;34886;-65
2023/08/23 07:11:10;;;;;;;14.63;11.60;;;;;;;29.50;48.04;99651.75;4288822;33;33644;-66
2023/08/23 07:13:40;;;;;;;13.00;11.12;;;;;;;29.53;47.96;99653.97;4288726;33;33185;-65
2023/08/23 07:16:08;;;;;;;13.38;10.25;;;;;;;29.52;48.12;99659.72;4277445;33;32611;-65
2023/08/23 07:18:35;;;;;;;14.73;10.85;;;;;;;29.54;48.26;99660.31;4302698;33;34663;-65
2023/08/23 07:21:03;;;;;;;13.85;11.30;;;;;;;29.59;48.42;99660.34;4303232;33;34096;-67
2023/08/23 07:23:31;;;;;;;15.07;11.50;;;;;;;29.55;48.42;99660.06;4291277;33;32648;-73
2023/08/23 07:26:19;;;;;;;13.80;11.18;;;;;;;29.55;48.51;99665.56;4293001;33;32571;-73
2023/08/23 07:28:47;;;;;;;15.88;11.85;;;;;;;29.55;48.47;99664.72;4291317;33;34575;-72
2023/08/23 07:31:14;;;;;;;21.65;11.98;;;;;;;29.54;48.48;99669.38;4316086;33;34157;-73
2023/08/23 07:33:44;;;;;;;16.67;11.48;;;;;;;29.53;48.50;99675.97;4316369;33;33456;-72
2023/08/23 07:36:11;;;;;;;12.27;11.00;;;;;;;29.52;48.50;99677.06;4316154;33;33869;-72
2023/08/23 07:38:39;;;;;;;13.68;11.12;;;;;;;29.53;48.48;99683.41;4316329;33;34083;-72
2023/08/23 07:41:06;;;;;;;15.23;12.15;;;;;;;29.52;48.50;99685.31;4316000;33;33825;-73
2023/08/23 07:43:34;;;;;;;13.95;11.05;;;;;;;29.51;48.51;99680.06;4316037;33;33749;-77
2023/08/23 07:46:03;;;;;;;14.15;11.23;;;;;;;29.50;48.51;99682.00;4302582;33;32686;-73
2023/08/23 07:48:30;;;;;;;12.00;10.75;;;;;;;29.49;48.51;99680.34;4300343;33;33893;-77
2023/08/23 07:51:01;;;;;;;12.30;11.00;;;;;;;29.49;48.52;99678.44;4301782;33;34206;-74
2023/08/23 07:53:29;;;;;;;12.82;11.23;;;;;;;29.49;48.51;99691.34;4303354;33;33725;-73
2023/08/23 07:55:57;;;;;;;13.35;11.70;;;;;;;29.49;48.52;99688.59;4302400;33;34534;-79
2023/08/23 07:58:24;;;;;;;13.48;10.77;;;;;;;29.48;48.52;99689.72;4314949;33;34720;-75
2023/08/23 08:00:52;;;;;;;15.10;11.27;;;;;;;29.48;48.52;99692.47;4292903;33;34582;-76
2023/08/23 08:03:20;;;;;;;14.70;11.10;;;;;;;29.47;48.49;99690.78;4304594;33;32464;-73
2023/08/23 08:05:48;;;;;;;13.43;11.88;;;;;;;29.46;48.49;99687.22;4304521;33;34008;-75
2023/08/23 08:08:15;;;;;;;12.77;11.48;;;;;;;29.47;48.49;99685.28;4317702;33;34326;-72
2023/08/23 08:10:43;;;;;;;11.50;9.50;;;;;;;29.47;48.49;99688.03;4317877;33;34326;-78
2023/08/23 08:13:11;;;;;;;12.70;11.38;;;;;;;29.46;48.49;99684.47;4317771;33;33722;-74
2023/08/23 08:15:39;;;;;;;12.65;11.35;;;;;;;29.46;48.50;99689.97;4317810;33;33753;-75
2023/08/23 08:18:07;;;;;;;12.60;11.30;;;;;;;29.46;48.48;99686.38;4317690;33;33583;-64
2023/08/23 08:20:35;;;;;;;12.37;11.07;;;;;;;29.45;48.48;99682.81;4318106;33;34230;-76
2023/08/23 08:23:04;;;;;;;12.30;10.05;;;;;;;29.46;48.46;99686.38;4292847;33;33774;-76
2023/08/23 08:25:35;;;;;;;11.77;10.48;;;;;;;29.46;48.47;99678.12;4303378;33;34659;-79
2023/08/23 08:28:03;;;;;;;12.63;10.88;;;;;;;29.46;48.54;99678.12;4303281;33;33543;-79
2023/08/23 08:30:31;;;;;;;12.55;11.02;;;;;;;29.45;48.57;99680.06;4309941;33;34478;-77
2023/08/23 08:33:01;;;;;;;12.68;10.52;;;;;;;29.46;48.58;99683.63;4317924;33;33556;-79
2023/08/23 08:35:29;;;;;;;14.57;10.95;;;;;;;29.45;48.57;99680.06;4290942;33;34651;-75
2023/08/23 08:37:57;;;;;;;11.70;10.27;;;;;;;29.45;48.58;99682.81;4304497;33;34125;-77
2023/08/23 08:40:25;;;;;;;12.20;10.27;;;;;;;29.44;48.58;99672.91;4311803;33;33918;-79
2023/08/23 08:42:53;;;;;;;13.57;10.35;;;;;;;29.46;48.58;99680.87;4301755;33;33317;-78
2023/08/23 08:45:20;;;;;;;11.02;9.82;;;;;;;29.46;48.63;99686.38;4302038;33;34026;-76
2023/08/23 08:47:49;;;;;;;16.83;10.90;;;;;;;29.43;48.61;99679.53;4292049;33;33675;-77
2023/08/23 08:50:17;;;;;;;11.60;10.33;;;;;;;29.45;48.66;99684.72;4314874;33;34870;-75
2023/08/23 08:52:50;;;;;;;12.35;10.43;;;;;;;29.47;48.90;99685.28;4317532;33;34178;-78
2023/08/23 08:55:20;;;;;;;12.07;10.88;;;;;;;29.47;49.08;99686.13;4304458;33;34669;-79
2023/08/23 08:57:48;;;;;;;11.47;9.83;;;;;;;29.48;49.07;99681.47;4291794;33;34037;-76
2023/08/23 09:00:17;;;;;;;12.75;10.63;;;;;;;29.49;49.00;99681.19;4290921;33;33839;-73
2023/08/23 09:03:26;;;;;;;10.80;9.60;;;;;;;29.52;49.04;99685.31;4288544;33;34363;-78
2023/08/23 09:06:19;;;;;;;11.40;9.82;;;;;;;29.54;48.96;99683.13;4298985;33;32448;-74
2023/08/23 09:09:28;;;;;;;13.23;10.75;;;;;;;29.54;48.98;99685.88;4291339;33;32925;-74
2023/08/23 09:12:15;;;;;;;11.60;10.27;;;;;;;29.55;48.99;99678.47;4284866;33;34716;-75
2023/08/23 09:15:24;;;;;;;11.23;10.05;;;;;;;29.54;48.99;99687.78;4292495;33;32516;-76
2023/08/23 09:18:12;;;;;;;12.77;10.23;;;;;;;29.56;48.99;99689.19;4303017;33;33686;-77
2023/08/23 09:21:24;;;;;;;11.18;9.95;;;;;;;29.57;48.99;99690.03;4301425;33;34245;-74
2023/08/23 09:24:12;;;;;;;11.23;9.52;;;;;;;29.56;48.99;99694.69;4289120;33;33252;-73
2023/08/23 09:27:22;;;;;;;11.30;10.05;;;;;;;29.58;49.04;99691.69;4305874;33;33986;-79
2023/08/23 09:30:10;;;;;;;12.50;9.68;;;;;;;29.59;49.02;99694.16;4316815;33;33609;-77
2023/08/23 09:32:39;;;;;;;12.25;9.80;;;;;;;29.59;49.04;99694.16;4291955;33;34400;-76
2023/08/23 09:35:29;;;;;;;13.15;9.80;;;;;;;29.60;49.05;99681.22;4303888;33;33329;-77
2023/08/23 09:37:57;;;;;;;12.95;10.75;;;;;;;29.61;49.02;99675.50;4297301;33;34396;-78
2023/08/23 09:40:26;;;;;;;12.07;9.48;;;;;;;29.63;49.08;99656.78;4302487;33;33974;-78
2023/08/23 09:42:56;;;;;;;10.77;9.32;;;;;;;29.63;49.11;99658.72;4289473;33;34042;-75
2023/08/23 09:45:26;;;;;;;11.43;9.88;;;;;;;29.62;49.07;99648.81;4309977;33;34013;-75
2023/08/23 09:47:58;;;;;;;11.52;9.88;;;;;;;29.64;49.07;99660.34;4285596;33;32684;-78
2023/08/23 09:50:26;;;;;;;12.20;9.88;;;;;;;29.64;49.05;99652.94;4289621;33;33719;-79
2023/08/23 09:53:03;;;;;;;13.43;10.13;;;;;;;29.65;49.11;99678.50;4289756;33;33881;-79
2023/08/23 09:55:35;;;;;;;10.77;9.68;;;;;;;29.65;49.08;99673.81;4289965;33;33622;-79
2023/08/23 09:58:02;;;;;;;10.70;9.32;;;;;;;29.63;49.07;99676.03;4300369;33;85348;-79
2023/08/23 10:00:30;;;;;;;10.27;9.27;;;;;;;29.64;49.07;99674.91;4298979;33;33822;-80
2023/08/23 10:02:58;;;;;;;12.88;10.07;;;;;;;29.62;49.08;99666.13;4317061;33;33572;-80
2023/08/23 10:05:26;;;;;;;11.18;9.57;;;;;;;29.63;49.05;99669.72;4317508;33;33729;-80
2023/08/23 10:07:55;;;;;;;13.05;9.50;;;;;;;29.62;49.01;99668.88;4292592;33;34444;-80
2023/08/23 10:10:24;;;;;;;11.60;9.60;;;;;;;29.64;48.98;99669.44;4316911;33;34673;-79
2023/08/23 10:12:54;;;;;;;11.98;9.43;;;;;;;29.64;48.98;99668.59;4306705;33;33909;-78
2023/08/23 10:15:30;;;;;;;9.93;8.77;;;;;;;29.62;49.03;99666.13;4290191;33;35514;-75
2023/08/23 10:17:58;;;;;;;10.23;8.48;;;;;;;29.65;48.93;99664.75;4301489;33;34493;-75
2023/08/23 10:20:26;;;;;;;12.68;10.05;;;;;;;29.61;48.98;99667.25;4289444;33;33393;-78
2023/08/23 10:22:56;;;;;;;10.70;9.60;;;;;;;29.62;48.96;99670.81;4301168;33;34028;-79
2023/08/23 10:25:23;;;;;;;10.20;8.88;;;;;;;29.61;48.98;99670.00;4303003;33;33704;-78
2023/08/23 10:27:52;;;;;;;10.25;9.25;;;;;;;29.62;48.96;99665.31;4303782;33;33730;-81
2023/08/23 10:30:26;;;;;;;11.43;8.57;;;;;;;29.60;48.98;99662.81;4303630;33;33855;-78
2023/08/23 10:32:55;;;;;;;10.77;8.73;;;;;;;29.60;48.95;99660.06;4303737;33;33647;-78
2023/08/23 10:35:23;;;;;;;10.75;8.95;;;;;;;29.60;48.95;99660.06;4300118;33;34191;-80
2023/08/23 10:37:52;;;;;;;10.55;9.45;;;;;;;29.60;48.93;99660.06;4296993;33;33558;-77
2023/08/23 10:40:21;;;;;;;10.15;8.45;;;;;;;29.60;48.91;99657.31;4316424;33;34957;-78
2023/08/23 10:42:50;;;;;;;10.48;8.52;;;;;;;29.62;48.88;99660.63;4303236;33;34851;-79
2023/08/23 10:45:17;;;;;;;11.57;8.90;;;;;;;29.61;48.88;99658.13;4303635;33;35059;-78
2023/08/23 10:47:46;;;;;;;9.90;8.75;;;;;;;29.61;48.87;99648.00;4316668;33;33701;-79
2023/08/23 10:50:14;;;;;;;9.85;8.85;;;;;;;29.60;48.86;99651.81;4303160;33;33108;-75
2023/08/23 10:52:41;;;;;;;10.18;9.15;;;;;;;29.60;48.86;99648.25;4282435;33;34863;-76
2023/08/23 10:55:09;;;;;;;11.15;9.15;;;;;;;29.60;48.85;99654.56;4316386;33;34568;-79
2023/08/23 10:57:37;;;;;;;13.80;9.25;;;;;;;29.60;48.94;99646.31;4305622;33;33220;-79
2023/08/23 11:00:05;;;;;;;11.52;8.73;;;;;;;29.60;48.92;99643.56;4305942;33;34614;-78
2023/08/23 11:02:33;;;;;;;9.57;8.53;;;;;;;29.61;48.97;99641.63;4312959;33;33684;-78
2023/08/23 11:05:01;;;;;;;10.45;8.60;;;;;;;29.64;48.94;99647.44;4303118;33;34837;-78
2023/08/23 11:07:30;;;;;;;9.50;8.50;;;;;;;29.63;48.99;99643.03;4303530;33;34311;-76
2023/08/23 11:09:58;;;;;;;9.65;8.65;;;;;;;29.65;49.01;99635.31;4306624;33;34312;-79
2023/08/23 11:12:25;;;;;;;11.27;9.02;;;;;;;29.65;49.06;99637.25;4302792;33;34771;-78
2023/08/23 11:14:55;;;;;;;14.02;8.90;;;;;;;29.66;49.03;99649.94;4300807;33;34003;-79
2023/08/23 11:17:23;;;;;;;10.95;9.32;;;;;;;29.66;49.10;99648.00;4304645;33;34017;-77
2023/08/23 11:19:51;;;;;;;10.80;9.02;;;;;;;29.67;49.10;99646.91;4316126;33;34525;-77
2023/08/23 11:22:18;;;;;;;10.02;8.25;;;;;;;29.66;49.16;99645.25;4302944;33;33796;-79
2023/08/23 11:24:46;;;;;;;10.25;9.25;;;;;;;29.68;49.16;99647.72;4303502;33;34287;-80
2023/08/23 11:27:14;;;;;;;9.82;8.65;;;;;;;29.68;49.15;99648.53;4318169;33;33493;-79
2023/08/23 11:30:26;;;;;;;10.15;8.50;;;;;;;29.69;49.15;99641.13;4271769;33;33665;-79
2023/08/23 11:33:14;;;;;;;10.77;8.37;;;;;;;29.70;49.06;99640.88;4276811;33;33195;-79
2023/08/23 11:36:22;;;;;;;13.15;8.57;;;;;;;29.70;49.04;99638.13;4286812;33;34765;-80